sensor_id;sensor_type;location;lat;lon;timestamp;pressure;altitude;pressure_sealevel;temperature;humidity
63343;BME280;49465;57.664;39.686;2023-06-04T00:01:00;100345.31;;;8.33;58.13
63343;BME280;49465;57.664;39.686;2023-06-04T00:03:28;100355.56;;;8.20;58.12
63343;BME280;49465;57.664;39.686;2023-06-04T00:06:06;100343.97;;;8.26;57.49
63343;BME280;49465;57.664;39.686;2023-06-04T00:08:41;100344.47;;;8.32;57.54
63343;BME280;49465;57.664;39.686;2023-06-04T00:11:16;100363.56;;;8.17;58.10
63343;BME280;49465;57.664;39.686;2023-06-04T00:13:48;100358.66;;;8.11;57.75
63343;BME280;49465;57.664;39.686;2023-06-04T00:16:19;100360.59;;;8.07;57.62
63343;BME280;49465;57.664;39.686;2023-06-04T00:18:52;100358.22;;;8.03;58.21
63343;BME280;49465;57.664;39.686;2023-06-04T00:21:32;100363.78;;;7.97;57.98
63343;BME280;49465;57.664;39.686;2023-06-04T00:24:10;100368.88;;;8.00;57.74
63343;BME280;49465;57.664;39.686;2023-06-04T00:26:43;100370.25;;;7.89;58.04
63343;BME280;49465;57.664;39.686;2023-06-04T00:29:21;100371.94;;;7.90;57.94
63343;BME280;49465;57.664;39.686;2023-06-04T00:32:01;100374.69;;;7.87;57.78
63343;BME280;49465;57.664;39.686;2023-06-04T00:34:35;100375.97;;;7.80;57.96
63343;BME280;49465;57.664;39.686;2023-06-04T00:37:10;100373.03;;;7.86;57.44
63343;BME280;49465;57.664;39.686;2023-06-04T00:39:47;100381.94;;;7.82;57.40
63343;BME280;49465;57.664;39.686;2023-06-04T00:42:22;100372.22;;;7.68;57.93
63343;BME280;49465;57.664;39.686;2023-06-04T00:44:54;100381.88;;;7.66;57.70
63343;BME280;49465;57.664;39.686;2023-06-04T00:47:29;100380.44;;;7.61;57.80
63343;BME280;49465;57.664;39.686;2023-06-04T00:50:05;100381.88;;;7.66;58.06
63343;BME280;49465;57.664;39.686;2023-06-04T00:52:39;100389.34;;;7.57;57.88
63343;BME280;49465;57.664;39.686;2023-06-04T00:55:10;100385.03;;;7.56;58.07
63343;BME280;49465;57.664;39.686;2023-06-04T00:57:46;100388.09;;;7.46;58.23
63343;BME280;49465;57.664;39.686;2023-06-04T01:00:21;100393.16;;;7.49;57.87
63343;BME280;49465;57.664;39.686;2023-06-04T01:02:58;100393.22;;;7.48;57.94
63343;BME280;49465;57.664;39.686;2023-06-04T01:06:08;100390.56;;;7.67;57.67
63343;BME280;49465;57.664;39.686;2023-06-04T01:08:33;100401.28;;;7.43;57.94
63343;BME280;49465;57.664;39.686;2023-06-04T01:11:02;100395.91;;;7.29;57.99
63343;BME280;49465;57.664;39.686;2023-06-04T01:13:40;100398.69;;;7.43;58.11
63343;BME280;49465;57.664;39.686;2023-06-04T01:16:14;100406.88;;;7.36;58.22
63343;BME280;49465;57.664;39.686;2023-06-04T01:18:50;100398.72;;;7.24;57.98
63343;BME280;49465;57.664;39.686;2023-06-04T01:21:30;100412.16;;;7.34;58.47
63343;BME280;49465;57.664;39.686;2023-06-04T01:24:14;100416.78;;;7.46;58.08
63343;BME280;49465;57.664;39.686;2023-06-04T01:26:53;100418.47;;;7.30;58.67
63343;BME280;49465;57.664;39.686;2023-06-04T01:29:30;100423.81;;;7.27;58.21
63343;BME280;49465;57.664;39.686;2023-06-04T01:32:17;100417.22;;;7.20;58.52
63343;BME280;49465;57.664;39.686;2023-06-04T01:34:55;100423.97;;;7.24;58.54
63343;BME280;49465;57.664;39.686;2023-06-04T01:37:33;100424.81;;;7.24;58.21
63343;BME280;49465;57.664;39.686;2023-06-04T01:40:07;100423.97;;;7.24;58.53
63343;BME280;49465;57.664;39.686;2023-06-04T01:42:43;100420.19;;;7.12;58.76
63343;BME280;49465;57.664;39.686;2023-06-04T01:45:23;100433.47;;;7.25;58.90
63343;BME280;49465;57.664;39.686;2023-06-04T01:47:53;100434.84;;;7.15;59.08
63343;BME280;49465;57.664;39.686;2023-06-04T01:50:34;100438.56;;;7.28;58.33
63343;BME280;49465;57.664;39.686;2023-06-04T01:53:12;100437.94;;;7.40;58.22
63343;BME280;49465;57.664;39.686;2023-06-04T01:55:46;100433.09;;;7.32;58.58
63343;BME280;49465;57.664;39.686;2023-06-04T01:58:16;100445.22;;;7.16;59.34
63343;BME280;49465;57.664;39.686;2023-06-04T02:01:17;100448.00;;;7.30;59.16
63343;BME280;49465;57.664;39.686;2023-06-04T02:03:52;100451.31;;;7.34;59.11
63343;BME280;49465;57.664;39.686;2023-06-04T02:06:25;100453.44;;;7.26;59.32
63343;BME280;49465;57.664;39.686;2023-06-04T02:09:04;100457.22;;;7.38;59.20
63343;BME280;49465;57.664;39.686;2023-06-04T02:11:41;100458.63;;;7.45;60.01
63343;BME280;49465;57.664;39.686;2023-06-04T02:14:16;100456.97;;;7.42;59.48
63343;BME280;49465;57.664;39.686;2023-06-04T02:16:55;100452.38;;;7.30;60.16
63343;BME280;49465;57.664;39.686;2023-06-04T02:19:37;100453.91;;;7.34;59.75
63343;BME280;49465;57.664;39.686;2023-06-04T02:22:18;100456.47;;;7.53;60.02
63343;BME280;49465;57.664;39.686;2023-06-04T02:24:51;100452.41;;;7.47;60.46
63343;BME280;49465;57.664;39.686;2023-06-04T02:27:25;100465.50;;;7.46;60.95
63343;BME280;49465;57.664;39.686;2023-06-04T02:29:54;100465.44;;;7.47;60.41
63343;BME280;49465;57.664;39.686;2023-06-04T02:32:27;100470.06;;;7.60;60.37
63343;BME280;49465;57.664;39.686;2023-06-04T02:35:02;100467.06;;;7.67;60.17
63343;BME280;49465;57.664;39.686;2023-06-04T02:37:33;100467.59;;;7.74;59.91
63343;BME280;49465;57.664;39.686;2023-06-04T02:40:14;100473.59;;;7.76;60.18
63343;BME280;49465;57.664;39.686;2023-06-04T02:42:46;100475.28;;;7.60;60.37
63343;BME280;49465;57.664;39.686;2023-06-04T02:45:21;100484.34;;;7.70;60.84
63343;BME280;49465;57.664;39.686;2023-06-04T02:47:55;100494.56;;;7.92;60.91
63343;BME280;49465;57.664;39.686;2023-06-04T02:50:26;100483.44;;;7.88;60.26
63343;BME280;49465;57.664;39.686;2023-06-04T02:52:58;100495.72;;;8.04;60.24
63343;BME280;49465;57.664;39.686;2023-06-04T02:55:36;100500.72;;;8.08;60.52
63343;BME280;49465;57.664;39.686;2023-06-04T02:58:10;100507.47;;;8.12;60.21
63343;BME280;49465;57.664;39.686;2023-06-04T03:00:42;100502.38;;;8.27;60.35
63343;BME280;49465;57.664;39.686;2023-06-04T03:03:12;100507.97;;;8.37;60.25
63343;BME280;49465;57.664;39.686;2023-06-04T03:05:44;100513.94;;;8.39;60.02
63343;BME280;49465;57.664;39.686;2023-06-04T03:08:19;100517.50;;;8.55;60.48
63343;BME280;49465;57.664;39.686;2023-06-04T03:10:51;100517.59;;;8.54;60.77
63343;BME280;49465;57.664;39.686;2023-06-04T03:13:20;100518.84;;;8.62;60.51
63343;BME280;49465;57.664;39.686;2023-06-04T03:15:55;100518.47;;;8.70;60.51
63343;BME280;49465;57.664;39.686;2023-06-04T03:18:30;100520.84;;;8.75;59.86
63343;BME280;49465;57.664;39.686;2023-06-04T03:21:04;100523.72;;;8.86;59.99
63343;BME280;49465;57.664;39.686;2023-06-04T03:23:37;100531.00;;;8.97;59.91
63343;BME280;49465;57.664;39.686;2023-06-04T03:26:07;100532.03;;;9.10;59.38
63343;BME280;49465;57.664;39.686;2023-06-04T03:28:39;100521.28;;;8.99;60.02
63343;BME280;49465;57.664;39.686;2023-06-04T03:31:10;100528.56;;;9.25;58.25
63343;BME280;49465;57.664;39.686;2023-06-04T03:33:44;100537.75;;;9.48;59.26
63343;BME280;49465;57.664;39.686;2023-06-04T03:36:16;100539.84;;;9.58;59.57
63343;BME280;49465;57.664;39.686;2023-06-04T03:39:02;100538.84;;;9.76;58.34
63343;BME280;49465;57.664;39.686;2023-06-04T03:41:31;100541.09;;;9.82;58.54
63343;BME280;49465;57.664;39.686;2023-06-04T03:44:03;100544.94;;;9.91;58.64
63343;BME280;49465;57.664;39.686;2023-06-04T03:46:41;100553.47;;;9.95;58.10
63343;BME280;49465;57.664;39.686;2023-06-04T03:49:12;100554.41;;;10.24;57.95
63343;BME280;49465;57.664;39.686;2023-06-04T03:51:45;100561.94;;;10.30;57.61
63343;BME280;49465;57.664;39.686;2023-06-04T03:54:20;100562.63;;;10.48;57.11
63343;BME280;49465;57.664;39.686;2023-06-04T03:56:50;100561.88;;;10.46;57.42
63343;BME280;49465;57.664;39.686;2023-06-04T03:59:18;100562.53;;;10.64;56.95
63343;BME280;49465;57.664;39.686;2023-06-04T04:01:50;100556.28;;;10.81;56.67
63343;BME280;49465;57.664;39.686;2023-06-04T04:04:33;100571.53;;;11.03;56.91
63343;BME280;49465;57.664;39.686;2023-06-04T04:07:02;100568.06;;;11.17;55.64
63343;BME280;49465;57.664;39.686;2023-06-04T04:09:35;100570.25;;;11.10;56.26
63343;BME280;49465;57.664;39.686;2023-06-04T04:12:12;100571.53;;;11.32;55.98
63343;BME280;49465;57.664;39.686;2023-06-04T04:14:44;100574.66;;;11.51;55.38
63343;BME280;49465;57.664;39.686;2023-06-04T04:17:18;100569.81;;;11.72;54.62
63343;BME280;49465;57.664;39.686;2023-06-04T04:19:45;100570.75;;;11.71;55.06
63343;BME280;49465;57.664;39.686;2023-06-04T04:22:14;100576.34;;;11.79;54.74
63343;BME280;49465;57.664;39.686;2023-06-04T04:24:45;100580.72;;;11.93;54.70
63343;BME280;49465;57.664;39.686;2023-06-04T04:27:15;100582.03;;;12.13;53.99
63343;BME280;49465;57.664;39.686;2023-06-04T04:29:45;100585.34;;;12.42;54.27
63343;BME280;49465;57.664;39.686;2023-06-04T04:32:16;100590.41;;;12.45;53.26
63343;BME280;49465;57.664;39.686;2023-06-04T04:34:55;100591.72;;;12.78;53.37
63343;BME280;49465;57.664;39.686;2023-06-04T04:37:27;100599.28;;;12.70;53.26
63343;BME280;49465;57.664;39.686;2023-06-04T04:40:04;100597.59;;;12.95;53.15
63343;BME280;49465;57.664;39.686;2023-06-04T04:42:31;100597.16;;;13.14;52.47
63343;BME280;49465;57.664;39.686;2023-06-04T04:45:04;100607.00;;;13.23;52.20
63343;BME280;49465;57.664;39.686;2023-06-04T04:47:34;100607.00;;;13.49;52.11
63343;BME280;49465;57.664;39.686;2023-06-04T04:50:09;100606.13;;;13.61;51.55
63343;BME280;49465;57.664;39.686;2023-06-04T04:52:39;100604.22;;;13.63;51.11
63343;BME280;49465;57.664;39.686;2023-06-04T04:55:17;100611.34;;;13.74;51.32
63343;BME280;49465;57.664;39.686;2023-06-04T04:57:54;100606.81;;;14.00;50.63
63343;BME280;49465;57.664;39.686;2023-06-04T05:00:34;100600.41;;;14.15;50.17
63343;BME280;49465;57.664;39.686;2023-06-04T05:03:04;100606.66;;;14.26;50.12
63343;BME280;49465;57.664;39.686;2023-06-04T05:05:35;100612.09;;;14.35;49.85
63343;BME280;49465;57.664;39.686;2023-06-04T05:08:14;100607.81;;;14.46;48.86
63343;BME280;49465;57.664;39.686;2023-06-04T05:10:46;100606.25;;;14.54;49.09
63343;BME280;49465;57.664;39.686;2023-06-04T05:13:18;100618.44;;;14.68;48.86
63343;BME280;49465;57.664;39.686;2023-06-04T05:15:55;100623.88;;;14.78;48.26
63343;BME280;49465;57.664;39.686;2023-06-04T05:18:24;100615.69;;;14.81;47.85
63343;BME280;49465;57.664;39.686;2023-06-04T05:20:59;100618.81;;;14.97;47.99
63343;BME280;49465;57.664;39.686;2023-06-04T05:23:30;100622.31;;;15.09;47.55
63343;BME280;49465;57.664;39.686;2023-06-04T05:26:01;100624.50;;;15.15;47.09
63343;BME280;49465;57.664;39.686;2023-06-04T05:28:35;100627.00;;;15.28;47.28
63343;BME280;49465;57.664;39.686;2023-06-04T05:31:04;100616.69;;;15.14;46.22
63343;BME280;49465;57.664;39.686;2023-06-04T05:33:33;100626.88;;;15.41;46.06
63343;BME280;49465;57.664;39.686;2023-06-04T05:36:02;100623.63;;;15.49;45.49
63343;BME280;49465;57.664;39.686;2023-06-04T05:38:33;100628.75;;;15.61;45.01
63343;BME280;49465;57.664;39.686;2023-06-04T05:41:21;100626.44;;;15.91;45.76
63343;BME280;49465;57.664;39.686;2023-06-04T05:43:49;100618.03;;;15.86;44.91
63343;BME280;49465;57.664;39.686;2023-06-04T05:46:24;100632.31;;;15.94;45.33
63343;BME280;49465;57.664;39.686;2023-06-04T05:48:56;100632.88;;;16.09;44.82
63343;BME280;49465;57.664;39.686;2023-06-04T05:51:23;100624.38;;;15.94;43.53
63343;BME280;49465;57.664;39.686;2023-06-04T05:53:52;100632.81;;;16.20;43.65
63343;BME280;49465;57.664;39.686;2023-06-04T05:56:26;100626.84;;;16.39;42.89
63343;BME280;49465;57.664;39.686;2023-06-04T05:59:05;100629.03;;;16.55;44.18
63343;BME280;49465;57.664;39.686;2023-06-04T06:01:32;100623.28;;;16.71;43.48
63343;BME280;49465;57.664;39.686;2023-06-04T06:03:58;100625.69;;;16.53;42.95
63343;BME280;49465;57.664;39.686;2023-06-04T06:06:27;100625.41;;;16.77;42.87
63343;BME280;49465;57.664;39.686;2023-06-04T06:09:05;100628.00;;;16.68;42.61
63343;BME280;49465;57.664;39.686;2023-06-04T06:11:40;100630.84;;;16.76;42.77
63343;BME280;49465;57.664;39.686;2023-06-04T06:14:13;100634.06;;;17.00;42.65
63343;BME280;49465;57.664;39.686;2023-06-04T06:16:50;100642.41;;;16.96;42.61
63343;BME280;49465;57.664;39.686;2023-06-04T06:19:25;100640.06;;;17.03;42.27
63343;BME280;49465;57.664;39.686;2023-06-04T06:21:59;100635.31;;;16.96;41.97
63343;BME280;49465;57.664;39.686;2023-06-04T06:24:32;100630.84;;;16.97;41.78
63343;BME280;49465;57.664;39.686;2023-06-04T06:27:04;100638.31;;;17.13;41.59
63343;BME280;49465;57.664;39.686;2023-06-04T06:29:43;100642.16;;;17.30;41.94
63343;BME280;49465;57.664;39.686;2023-06-04T06:32:13;100638.00;;;17.37;41.57
63343;BME280;49465;57.664;39.686;2023-06-04T06:34:42;100634.69;;;17.14;41.36
63343;BME280;49465;57.664;39.686;2023-06-04T06:37:11;100641.53;;;17.16;40.68
63343;BME280;49465;57.664;39.686;2023-06-04T06:39:41;100646.28;;;17.23;41.35
63343;BME280;49465;57.664;39.686;2023-06-04T06:42:10;100643.03;;;17.50;41.37
63343;BME280;49465;57.664;39.686;2023-06-04T06:44:39;100640.75;;;17.66;41.22
63343;BME280;49465;57.664;39.686;2023-06-04T06:47:11;100644.94;;;17.78;40.49
63343;BME280;49465;57.664;39.686;2023-06-04T06:49:43;100638.97;;;17.86;40.75
63343;BME280;49465;57.664;39.686;2023-06-04T06:52:12;100629.91;;;17.89;40.16
63343;BME280;49465;57.664;39.686;2023-06-04T06:54:47;100637.31;;;18.24;40.08
63343;BME280;49465;57.664;39.686;2023-06-04T06:57:21;100642.06;;;18.30;39.34
63343;BME280;49465;57.664;39.686;2023-06-04T06:59:48;100645.41;;;18.03;38.41
63343;BME280;49465;57.664;39.686;2023-06-04T07:02:20;100643.75;;;18.22;38.82
63343;BME280;49465;57.664;39.686;2023-06-04T07:04:52;100641.34;;;17.99;38.73
63343;BME280;49465;57.664;39.686;2023-06-04T07:07:26;100643.03;;;18.00;38.92
63343;BME280;49465;57.664;39.686;2023-06-04T07:10:00;100653.53;;;18.11;39.23
63343;BME280;49465;57.664;39.686;2023-06-04T07:12:32;100645.41;;;18.03;38.98
63343;BME280;49465;57.664;39.686;2023-06-04T07:15:17;100651.16;;;18.28;38.94
63343;BME280;49465;57.664;39.686;2023-06-04T07:17:56;100653.25;;;18.34;39.05
63343;BME280;49465;57.664;39.686;2023-06-04T07:20:28;100654.63;;;18.18;38.55
63343;BME280;49465;57.664;39.686;2023-06-04T07:22:57;100647.53;;;18.29;38.89
63343;BME280;49465;57.664;39.686;2023-06-04T07:25:32;100647.38;;;18.11;38.75
63343;BME280;49465;57.664;39.686;2023-06-04T07:28:07;100651.16;;;18.08;38.34
63343;BME280;49465;57.664;39.686;2023-06-04T07:30:39;100639.56;;;17.90;38.54
63343;BME280;49465;57.664;39.686;2023-06-04T07:33:14;100648.63;;;18.16;39.03
63343;BME280;49465;57.664;39.686;2023-06-04T07:35:51;100653.25;;;18.44;38.93
63343;BME280;49465;57.664;39.686;2023-06-04T07:38:29;100652.53;;;18.51;39.03
63343;BME280;49465;57.664;39.686;2023-06-04T07:40:58;100651.41;;;18.54;38.83
63343;BME280;49465;57.664;39.686;2023-06-04T07:43:39;100660.22;;;18.64;38.82
63343;BME280;49465;57.664;39.686;2023-06-04T07:46:11;100646.94;;;18.74;38.12
63343;BME280;49465;57.664;39.686;2023-06-04T07:48:40;100641.06;;;18.61;37.50
63343;BME280;49465;57.664;39.686;2023-06-04T07:51:10;100646.50;;;18.88;38.00
63343;BME280;49465;57.664;39.686;2023-06-04T07:53:42;100639.44;;;19.07;37.41
63343;BME280;49465;57.664;39.686;2023-06-04T07:56:13;100647.59;;;18.95;37.45
63343;BME280;49465;57.664;39.686;2023-06-04T07:58:44;100652.09;;;19.23;37.51
63343;BME280;49465;57.664;39.686;2023-06-04T08:01:11;100636.00;;;19.52;37.31
63343;BME280;49465;57.664;39.686;2023-06-04T08:03:40;100640.63;;;19.50;36.89
63343;BME280;49465;57.664;39.686;2023-06-04T08:06:10;100633.72;;;19.39;36.86
63343;BME280;49465;57.664;39.686;2023-06-04T08:08:50;100643.78;;;19.63;37.05
63343;BME280;49465;57.664;39.686;2023-06-04T08:11:20;100651.69;;;19.83;36.76
63343;BME280;49465;57.664;39.686;2023-06-04T08:13:54;100660.69;;;20.00;36.63
63343;BME280;49465;57.664;39.686;2023-06-04T08:16:26;100658.84;;;20.00;35.76
63343;BME280;49465;57.664;39.686;2023-06-04T08:18:57;100655.66;;;20.14;35.40
63343;BME280;49465;57.664;39.686;2023-06-04T08:21:28;100657.16;;;19.99;35.08
63343;BME280;49465;57.664;39.686;2023-06-04T08:24:03;100658.09;;;20.08;35.72
63343;BME280;49465;57.664;39.686;2023-06-04T08:26:36;100646.00;;;20.31;35.75
63343;BME280;49465;57.664;39.686;2023-06-04T08:29:10;100654.78;;;20.68;35.34
63343;BME280;49465;57.664;39.686;2023-06-04T08:31:47;100661.16;;;20.75;35.81
63343;BME280;49465;57.664;39.686;2023-06-04T08:34:28;100658.88;;;20.80;35.07
63343;BME280;49465;57.664;39.686;2023-06-04T08:37:01;100649.44;;;20.68;34.86
63343;BME280;49465;57.664;39.686;2023-06-04T08:39:37;100657.94;;;20.27;33.88
63343;BME280;49465;57.664;39.686;2023-06-04T08:42:09;100662.13;;;20.30;34.33
63343;BME280;49465;57.664;39.686;2023-06-04T08:44:43;100662.72;;;20.24;34.34
63343;BME280;49465;57.664;39.686;2023-06-04T08:47:12;100657.56;;;20.22;34.76
63343;BME280;49465;57.664;39.686;2023-06-04T08:49:41;100662.13;;;20.12;34.38
63343;BME280;49465;57.664;39.686;2023-06-04T08:52:20;100656.66;;;20.13;35.06
63343;BME280;49465;57.664;39.686;2023-06-04T08:54:53;100668.19;;;20.04;34.80
63343;BME280;49465;57.664;39.686;2023-06-04T08:57:25;100662.88;;;20.04;35.07
63343;BME280;49465;57.664;39.686;2023-06-04T08:59:54;100668.19;;;20.04;35.12
63343;BME280;49465;57.664;39.686;2023-06-04T09:02:28;100673.72;;;19.93;35.45
63343;BME280;49465;57.664;39.686;2023-06-04T09:05:00;100679.38;;;20.08;35.27
63343;BME280;49465;57.664;39.686;2023-06-04T09:07:38;100667.28;;;19.68;35.18
63343;BME280;49465;57.664;39.686;2023-06-04T09:10:10;100666.13;;;19.80;35.24
63343;BME280;49465;57.664;39.686;2023-06-04T09:12:46;100668.25;;;19.77;35.55
63343;BME280;49465;57.664;39.686;2023-06-04T09:15:27;100675.31;;;19.58;35.71
63343;BME280;49465;57.664;39.686;2023-06-04T09:18:07;100670.25;;;19.65;35.19
63343;BME280;49465;57.664;39.686;2023-06-04T09:20:42;100670.09;;;19.66;34.70
63343;BME280;49465;57.664;39.686;2023-06-04T09:23:18;100669.63;;;19.81;35.99
63343;BME280;49465;57.664;39.686;2023-06-04T09:25:47;100669.97;;;19.58;35.41
63343;BME280;49465;57.664;39.686;2023-06-04T09:28:46;100669.78;;;19.97;35.61
63343;BME280;49465;57.664;39.686;2023-06-04T09:31:18;100664.69;;;19.86;36.12
63343;BME280;49465;57.664;39.686;2023-06-04T09:34:00;100669.50;;;20.00;35.19
63343;BME280;49465;57.664;39.686;2023-06-04T09:36:39;100667.13;;;19.97;35.55
63343;BME280;49465;57.664;39.686;2023-06-04T09:39:18;100663.41;;;19.90;36.03
63343;BME280;49465;57.664;39.686;2023-06-04T09:42:00;100662.25;;;20.10;35.80
63343;BME280;49465;57.664;39.686;2023-06-04T09:44:52;100668.50;;;20.37;35.60
63343;BME280;49465;57.664;39.686;2023-06-04T09:47:22;100662.72;;;20.24;35.55
63343;BME280;49465;57.664;39.686;2023-06-04T09:49:57;100658.47;;;20.31;35.44
63343;BME280;49465;57.664;39.686;2023-06-04T09:52:38;100655.25;;;20.45;35.31
63343;BME280;49465;57.664;39.686;2023-06-04T09:55:18;100664.06;;;20.64;35.73
63343;BME280;49465;57.664;39.686;2023-06-04T09:57:53;100671.91;;;20.65;35.02
63343;BME280;49465;57.664;39.686;2023-06-04T10:00:25;100666.59;;;20.29;35.18
63343;BME280;49465;57.664;39.686;2023-06-04T10:03:04;100663.94;;;20.47;34.96
63343;BME280;49465;57.664;39.686;2023-06-04T10:05:39;100670.63;;;20.51;34.41
63343;BME280;49465;57.664;39.686;2023-06-04T10:08:10;100666.97;;;20.52;33.87
63343;BME280;49465;57.664;39.686;2023-06-04T10:10:47;100666.97;;;20.52;34.77
63343;BME280;49465;57.664;39.686;2023-06-04T10:13:22;100669.47;;;20.36;34.08
63343;BME280;49465;57.664;39.686;2023-06-04T10:15:58;100660.88;;;20.42;34.34
63343;BME280;49465;57.664;39.686;2023-06-04T10:18:34;100665.31;;;20.15;34.16
63343;BME280;49465;57.664;39.686;2023-06-04T10:21:06;100672.28;;;19.99;33.64
63343;BME280;49465;57.664;39.686;2023-06-04T10:23:43;100663.47;;;19.80;33.58
63343;BME280;49465;57.664;39.686;2023-06-04T10:26:16;100676.44;;;19.83;34.01
63343;BME280;49465;57.664;39.686;2023-06-04T10:28:45;100671.81;;;19.85;34.43
63343;BME280;49465;57.664;39.686;2023-06-04T10:31:19;100669.94;;;19.68;34.44
63343;BME280;49465;57.664;39.686;2023-06-04T10:33:57;100670.06;;;19.76;34.97
63343;BME280;49465;57.664;39.686;2023-06-04T10:36:29;100678.06;;;19.76;35.06
63343;BME280;49465;57.664;39.686;2023-06-04T10:39:11;100668.78;;;19.80;34.98
63343;BME280;49465;57.664;39.686;2023-06-04T10:41:43;100669.59;;;19.53;35.00
63343;BME280;49465;57.664;39.686;2023-06-04T10:44:19;100674.88;;;19.63;35.06
63343;BME280;49465;57.664;39.686;2023-06-04T10:46:53;100676.22;;;19.49;35.45
63343;BME280;49465;57.664;39.686;2023-06-04T10:49:33;100681.81;;;19.46;35.49
63343;BME280;49465;57.664;39.686;2023-06-04T10:52:13;100684.78;;;19.43;35.95
63343;BME280;49465;57.664;39.686;2023-06-04T10:54:49;100697.41;;;19.31;35.87
63343;BME280;49465;57.664;39.686;2023-06-04T10:57:22;100685.41;;;19.27;36.15
63343;BME280;49465;57.664;39.686;2023-06-04T11:00:01;100684.38;;;19.38;35.93
63343;BME280;49465;57.664;39.686;2023-06-04T11:02:38;100687.31;;;19.34;36.20
63343;BME280;49465;57.664;39.686;2023-06-04T11:05:45;100685.88;;;19.40;36.32
63343;BME280;49465;57.664;39.686;2023-06-04T11:08:25;100677.53;;;19.35;36.17
63343;BME280;49465;57.664;39.686;2023-06-04T11:11:09;100683.91;;;19.42;35.71
63343;BME280;49465;57.664;39.686;2023-06-04T11:13:51;100681.97;;;19.34;35.81
63343;BME280;49465;57.664;39.686;2023-06-04T11:16:35;100685.75;;;19.42;36.22
63343;BME280;49465;57.664;39.686;2023-06-04T11:19:10;100680.28;;;19.06;35.88
63343;BME280;49465;57.664;39.686;2023-06-04T11:21:40;100690.78;;;19.07;35.94
63343;BME280;49465;57.664;39.686;2023-06-04T11:24:11;100677.66;;;18.96;35.63
63343;BME280;49465;57.664;39.686;2023-06-04T11:26:43;100683.34;;;19.01;35.59
63343;BME280;49465;57.664;39.686;2023-06-04T11:29:30;100685.28;;;19.09;35.75
63343;BME280;49465;57.664;39.686;2023-06-04T11:32:01;100682.84;;;18.98;36.17
63343;BME280;49465;57.664;39.686;2023-06-04T11:34:33;100687.72;;;18.92;36.12
63343;BME280;49465;57.664;39.686;2023-06-04T11:37:15;100681.91;;;19.16;35.98
63343;BME280;49465;57.664;39.686;2023-06-04T11:39:47;100679.19;;;18.99;36.17
63343;BME280;49465;57.664;39.686;2023-06-04T11:42:23;100679.34;;;18.87;36.64
63343;BME280;49465;57.664;39.686;2023-06-04T11:45:02;100688.81;;;19.09;36.38
63343;BME280;49465;57.664;39.686;2023-06-04T11:47:35;100683.25;;;18.83;36.10
63343;BME280;49465;57.664;39.686;2023-06-04T11:50:01;100675.41;;;18.91;36.26
63343;BME280;49465;57.664;39.686;2023-06-04T11:52:37;100682.91;;;19.15;35.56
63343;BME280;49465;57.664;39.686;2023-06-04T11:55:15;100691.03;;;19.14;36.66
63343;BME280;49465;57.664;39.686;2023-06-04T11:57:47;100684.88;;;19.13;35.76
63343;BME280;49465;57.664;39.686;2023-06-04T12:00:19;100680.41;;;19.14;36.36
63343;BME280;49465;57.664;39.686;2023-06-04T12:02:54;100688.81;;;19.47;36.47
63343;BME280;49465;57.664;39.686;2023-06-04T12:05:30;100679.47;;;19.43;35.59
63343;BME280;49465;57.664;39.686;2023-06-04T12:08:10;100683.78;;;19.99;35.80
63343;BME280;49465;57.664;39.686;2023-06-04T12:10:42;100681.66;;;20.03;36.68
63343;BME280;49465;57.664;39.686;2023-06-04T12:13:36;100684.50;;;20.37;35.83
63343;BME280;49465;57.664;39.686;2023-06-04T12:16:06;100681.81;;;20.37;35.62
63343;BME280;49465;57.664;39.686;2023-06-04T12:18:33;100685.63;;;20.52;34.17
63343;BME280;49465;57.664;39.686;2023-06-04T12:21:02;100675.78;;;20.71;33.72
63343;BME280;49465;57.664;39.686;2023-06-04T12:23:29;100683.94;;;20.69;33.68
63343;BME280;49465;57.664;39.686;2023-06-04T12:26:01;100684.47;;;20.73;34.29
63343;BME280;49465;57.664;39.686;2023-06-04T12:28:35;100687.38;;;20.80;34.50
63343;BME280;49465;57.664;39.686;2023-06-04T12:31:19;100690.06;;;20.88;34.15
63343;BME280;49465;57.664;39.686;2023-06-04T12:33:48;100690.22;;;20.86;33.46
63343;BME280;49465;57.664;39.686;2023-06-04T12:36:24;100688.72;;;20.66;33.39
63343;BME280;49465;57.664;39.686;2023-06-04T12:39:03;100695.06;;;20.65;33.61
63343;BME280;49465;57.664;39.686;2023-06-04T12:41:35;100698.88;;;21.14;33.96
63343;BME280;49465;57.664;39.686;2023-06-04T12:44:04;100693.13;;;20.75;34.07
63343;BME280;49465;57.664;39.686;2023-06-04T12:46:36;100682.19;;;20.78;33.82
63343;BME280;49465;57.664;39.686;2023-06-04T12:49:11;100689.50;;;20.76;34.12
63343;BME280;49465;57.664;39.686;2023-06-04T12:51:44;100684.56;;;20.89;33.20
63343;BME280;49465;57.664;39.686;2023-06-04T12:54:10;100679.97;;;20.73;32.28
63343;BME280;49465;57.664;39.686;2023-06-04T12:56:39;100676.00;;;20.78;31.90
63343;BME280;49465;57.664;39.686;2023-06-04T12:59:12;100677.38;;;20.82;32.03
63343;BME280;49465;57.664;39.686;2023-06-04T13:01:44;100662.66;;;20.96;33.25
63343;BME280;49465;57.664;39.686;2023-06-04T13:04:10;100658.44;;;21.19;32.85
63343;BME280;49465;57.664;39.686;2023-06-04T13:06:43;100656.03;;;21.42;32.99
63343;BME280;49465;57.664;39.686;2023-06-04T13:09:14;100657.31;;;21.64;32.62
63343;BME280;49465;57.664;39.686;2023-06-04T13:11:48;100658.91;;;21.91;32.31
63343;BME280;49465;57.664;39.686;2023-06-04T13:14:20;100655.44;;;22.16;32.10
63343;BME280;49465;57.664;39.686;2023-06-04T13:16:52;100660.78;;;22.32;30.90
63343;BME280;49465;57.664;39.686;2023-06-04T13:19:26;100657.81;;;22.35;31.33